createdAt,value
2023-02-02T00:00:50.517Z,100577.09
2023-02-02T00:05:54.909Z,100583.94
2023-02-02T00:10:59.106Z,100580.41
2023-02-02T00:16:34.606Z,100584.31
2023-02-02T00:21:38.112Z,100590.47
2023-02-02T00:26:43.936Z,100595.06
2023-02-02T00:31:47.070Z,100598.28
2023-02-02T00:36:51.045Z,100589.00
2023-02-02T00:41:55.614Z,100585.50
2023-02-02T00:46:58.640Z,100594.13
2023-02-02T00:52:01.415Z,100593.97
2023-02-02T00:57:05.599Z,100601.88
2023-02-02T01:02:08.446Z,100609.91
2023-02-02T01:07:11.347Z,100608.81
2023-02-02T01:12:15.513Z,100614.56
2023-02-02T01:17:19.340Z,100623.75
2023-02-02T01:22:22.186Z,100617.81
2023-02-02T01:27:26.972Z,100619.19
2023-02-02T01:32:29.771Z,100620.97
2023-02-02T01:37:32.543Z,100628.31
2023-02-02T01:42:36.660Z,100625.63
2023-02-02T01:47:42.632Z,100626.84
2023-02-02T01:52:49.839Z,100628.81
2023-02-02T01:57:58.423Z,100639.72
2023-02-02T02:03:07.332Z,100647.28
2023-02-02T02:08:15.992Z,100646.00
2023-02-02T02:13:43.654Z,100648.50
2023-02-02T02:18:54.593Z,100644.75
2023-02-02T02:24:49.383Z,100662.03
2023-02-02T02:30:16.848Z,100664.66
2023-02-02T02:35:31.984Z,100670.91
2023-02-02T02:40:38.731Z,100668.13
2023-02-02T02:45:44.601Z,100664.72
2023-02-02T02:50:50.073Z,100666.25
2023-02-02T02:56:02.678Z,100672.41
2023-02-02T03:01:15.789Z,100672.91
2023-02-02T03:06:24.339Z,100680.09
2023-02-02T03:11:27.201Z,100688.28
2023-02-02T03:16:29.932Z,100679.97
2023-02-02T03:21:34.667Z,100685.06
2023-02-02T03:26:38.510Z,100671.69
2023-02-02T03:31:41.490Z,100680.16
2023-02-02T03:36:45.679Z,100692.75
2023-02-02T03:41:48.467Z,100696.75
2023-02-02T03:46:54.348Z,100693.38
2023-02-02T03:51:58.511Z,100702.84
2023-02-02T03:57:01.303Z,100694.03
2023-02-02T04:02:04.055Z,100699.47
2023-02-02T04:07:08.209Z,100703.56
2023-02-02T04:12:10.970Z,100710.47
2023-02-02T04:17:13.710Z,100712.84
2023-02-02T04:22:17.815Z,100718.88
2023-02-02T04:27:20.715Z,100725.31
2023-02-02T04:32:23.510Z,100718.91
2023-02-02T04:37:27.701Z,100722.88
2023-02-02T04:42:32.173Z,100716.16
2023-02-02T04:47:34.969Z,100718.84
2023-02-02T04:52:39.162Z,100711.81
2023-02-02T04:57:42.046Z,100715.50
2023-02-02T05:02:44.810Z,100718.88
2023-02-02T05:07:48.910Z,100728.94
2023-02-02T05:12:53.772Z,100729.44
2023-02-02T05:17:56.609Z,100727.84
2023-02-02T05:23:01.121Z,100734.78
2023-02-02T05:28:03.957Z,100726.66
2023-02-02T05:33:06.717Z,100732.81
2023-02-02T05:38:10.908Z,100736.47
2023-02-02T05:43:13.697Z,100741.06
2023-02-02T05:48:16.471Z,100747.44
2023-02-02T05:53:20.599Z,100744.72
2023-02-02T05:58:23.358Z,100746.84
2023-02-02T06:03:26.350Z,100747.81
2023-02-02T06:08:30.564Z,100754.34
2023-02-02T06:13:33.421Z,100764.31
2023-02-02T06:18:36.814Z,100768.91
2023-02-02T06:23:45.593Z,100775.56
2023-02-02T06:28:51.166Z,100782.56
2023-02-02T06:33:56.221Z,100791.16
2023-02-02T06:39:00.531Z,100796.91
2023-02-02T06:44:03.630Z,100810.78
2023-02-02T06:49:06.374Z,100814.50
2023-02-02T06:54:10.522Z,100811.78
2023-02-02T06:59:13.303Z,100814.44
2023-02-02T07:04:17.527Z,100816.22
2023-02-02T07:09:21.682Z,100822.84
2023-02-02T07:14:24.556Z,100829.22
2023-02-02T07:19:27.305Z,100831.06
2023-02-02T07:24:32.761Z,100828.69
2023-02-02T07:29:35.542Z,100834.13
2023-02-02T07:34:39.303Z,100832.72
2023-02-02T07:39:44.244Z,100827.19
2023-02-02T07:44:46.988Z,100834.50
2023-02-02T07:49:49.752Z,100842.72
2023-02-02T07:54:59.928Z,100845.66
2023-02-02T08:00:13.101Z,100859.91
2023-02-02T08:05:15.978Z,100860.75
2023-02-02T08:10:20.369Z,100864.41
2023-02-02T08:15:23.348Z,100868.50
2023-02-02T08:20:26.174Z,100867.47
2023-02-02T08:25:30.286Z,100864.09
2023-02-02T08:30:33.227Z,100874.44
2023-02-02T08:35:36.101Z,100889.38
2023-02-02T08:40:40.210Z,100889.34
2023-02-02T08:46:13.026Z,100896.50
2023-02-02T08:51:08.784Z,100905.66
2023-02-02T08:56:14.553Z,100905.91
2023-02-02T09:01:19.911Z,100911.50
2023-02-02T09:06:24.189Z,100927.16
2023-02-02T09:11:28.993Z,100934.19
2023-02-02T09:16:31.864Z,100943.75
2023-02-02T09:21:36.750Z,100948.03
2023-02-02T09:26:41.291Z,100948.88
2023-02-02T09:31:44.246Z,100947.34
2023-02-02T09:36:47.430Z,100954.19
2023-02-02T09:42:17.969Z,100960.19
2023-02-02T09:47:24.969Z,100961.78
2023-02-02T09:52:31.656Z,100970.78
2023-02-02T09:57:42.316Z,100971.28
2023-02-02T10:02:47.079Z,100971.53
2023-02-02T10:07:55.542Z,100981.19
2023-02-02T10:13:06.752Z,100982.09
2023-02-02T10:18:19.424Z,100996.09
2023-02-02T10:23:24.419Z,100994.31
2023-02-02T10:28:42.238Z,101001.59
2023-02-02T10:33:56.832Z,101006.09
2023-02-02T10:39:05.636Z,101002.63
2023-02-02T10:44:22.287Z,101021.53
2023-02-02T10:49:30.885Z,101025.47
2023-02-02T10:54:55.779Z,101028.63
2023-02-02T11:00:06.507Z,101036.81
2023-02-02T11:05:34.359Z,101035.25
2023-02-02T11:10:37.109Z,101024.91
2023-02-02T11:15:41.289Z,101041.53
2023-02-02T11:20:46.507Z,101042.09
2023-02-02T11:26:00.009Z,101044.91
2023-02-02T11:31:04.407Z,101036.88
2023-02-02T11:36:20.169Z,101053.72
2023-02-02T11:41:23.362Z,101039.31
2023-02-02T11:46:32.744Z,101048.94
2023-02-02T11:51:36.056Z,101059.28
2023-02-02T11:56:39.986Z,101053.63
2023-02-02T12:01:44.723Z,101061.03
2023-02-02T12:06:47.539Z,101060.22
2023-02-02T12:12:02.278Z,101052.63
2023-02-02T12:17:21.680Z,101046.75
2023-02-02T12:22:39.031Z,101051.72
2023-02-02T12:27:52.605Z,101053.66
2023-02-02T12:33:14.855Z,101053.91
2023-02-02T12:38:25.304Z,101053.66
2023-02-02T12:43:39.595Z,101066.53
2023-02-02T12:49:00.306Z,101064.16
2023-02-02T12:54:33.170Z,101068.88
2023-02-02T12:59:59.832Z,101068.75
2023-02-02T13:05:22.630Z,101076.66
2023-02-02T13:10:28.406Z,101070.63
2023-02-02T13:15:36.850Z,101065.44
2023-02-02T13:20:44.836Z,101070.13
2023-02-02T13:25:52.320Z,101075.25
2023-02-02T13:31:00.138Z,101083.47
2023-02-02T13:36:10.497Z,101074.94
2023-02-02T13:41:14.665Z,101080.94
2023-02-02T13:46:26.454Z,101092.72
2023-02-02T13:51:59.143Z,101091.63
2023-02-02T13:57:15.957Z,101096.50
2023-02-02T14:02:25.402Z,101102.47
2023-02-02T14:07:38.233Z,101106.22
2023-02-02T14:12:41.659Z,101105.72
2023-02-02T14:17:55.817Z,101112.94
2023-02-02T14:23:00.076Z,101118.09
2023-02-02T14:28:04.224Z,101116.09
2023-02-02T14:33:47.447Z,101120.81
2023-02-02T14:39:22.177Z,101126.09
2023-02-02T14:44:26.019Z,101127.09
2023-02-02T14:49:35.706Z,101129.44
2023-02-02T14:54:43.356Z,101133.78
2023-02-02T14:59:48.182Z,101146.31
2023-02-02T15:04:51.372Z,101136.00
2023-02-02T15:09:56.610Z,101154.84
2023-02-02T15:15:13.477Z,101159.25
2023-02-02T15:20:25.418Z,101150.97
2023-02-02T15:25:35.552Z,101180.34
2023-02-02T15:30:44.430Z,101174.19
2023-02-02T15:35:49.233Z,101170.88
2023-02-02T15:40:54.390Z,101173.13
2023-02-02T15:46:05.334Z,101174.38
2023-02-02T15:51:16.347Z,101180.34
2023-02-02T15:56:29.501Z,101197.06
2023-02-02T16:01:45.283Z,101193.13
2023-02-02T16:06:49.310Z,101190.41
2023-02-02T16:11:54.239Z,101193.84
2023-02-02T16:17:10.783Z,101191.50
2023-02-02T16:22:17.389Z,101198.31
2023-02-02T16:27:26.442Z,101197.19
2023-02-02T16:32:31.926Z,101199.53
2023-02-02T16:37:37.015Z,101198.00
2023-02-02T16:42:41.246Z,101197.91
2023-02-02T16:47:44.065Z,101203.25
2023-02-02T16:52:53.726Z,101199.81
2023-02-02T16:57:59.589Z,101195.72
2023-02-02T17:03:07.935Z,101198.31
2023-02-02T17:08:11.470Z,101201.50
2023-02-02T17:13:39.200Z,101197.81
2023-02-02T17:18:42.067Z,101200.56
2023-02-02T17:23:45.416Z,101201.34
2023-02-02T17:28:51.779Z,101197.91
2023-02-02T17:33:54.610Z,101212.31
2023-02-02T17:38:57.452Z,101207.78
2023-02-02T17:44:01.646Z,101207.09
2023-02-02T17:49:04.496Z,101208.06
2023-02-02T17:54:11.687Z,101206.38
2023-02-02T17:59:15.885Z,101209.88
2023-02-02T18:04:18.868Z,101209.97
2023-02-02T18:09:21.672Z,101214.97
2023-02-02T18:14:25.928Z,101209.44
2023-02-02T18:19:28.966Z,101199.53
2023-02-02T18:24:31.695Z,101181.75
2023-02-02T18:29:36.287Z,101179.66
2023-02-02T18:34:39.025Z,101172.78
2023-02-02T18:39:41.808Z,101171.69
2023-02-02T18:44:45.977Z,101166.34
2023-02-02T18:49:48.741Z,101163.25
2023-02-02T18:54:51.650Z,101163.13
2023-02-02T18:59:55.776Z,101163.19
2023-02-02T19:05:15.969Z,101157.50
2023-02-02T19:10:19.383Z,101162.44
2023-02-02T19:15:25.993Z,101162.25
2023-02-02T19:20:30.465Z,101155.00
2023-02-02T19:25:33.513Z,101155.91
2023-02-02T19:30:38.622Z,101151.38
2023-02-02T19:35:42.650Z,101153.84
2023-02-02T19:40:46.015Z,101152.78
2023-02-02T19:45:50.198Z,101151.03
2023-02-02T19:50:53.754Z,101159.25
2023-02-02T19:55:56.486Z,101147.53
2023-02-02T20:01:08.357Z,101149.09
2023-02-02T20:06:14.086Z,101141.06
2023-02-02T20:11:31.867Z,101137.94
2023-02-02T20:16:41.756Z,101132.34
2023-02-02T20:21:46.755Z,101138.13
2023-02-02T20:26:51.200Z,101136.78
2023-02-02T20:31:57.804Z,101129.88
2023-02-02T20:37:03.611Z,101135.31
2023-02-02T20:42:06.451Z,101133.88
2023-02-02T20:47:10.905Z,101134.78
2023-02-02T20:52:21.840Z,101132.84
2023-02-02T20:57:24.961Z,101134.88
2023-02-02T21:02:29.257Z,101136.16
2023-02-02T21:07:32.022Z,101133.63
2023-02-02T21:12:34.887Z,101124.09
2023-02-02T21:17:40.378Z,101124.16
2023-02-02T21:22:43.484Z,101129.38
2023-02-02T21:27:46.338Z,101121.69
2023-02-02T21:32:50.515Z,101131.16
2023-02-02T21:37:57.679Z,101137.69
2023-02-02T21:43:02.433Z,101136.16
2023-02-02T21:48:21.643Z,101128.88
2023-02-02T21:53:26.902Z,101127.59
2023-02-02T21:58:36.206Z,101132.84
2023-02-02T22:03:43.608Z,101137.16
2023-02-02T22:08:46.747Z,101127.66
2023-02-02T22:13:49.946Z,101133.84
2023-02-02T22:18:54.121Z,101118.72
2023-02-02T22:23:56.850Z,101120.22
2023-02-02T22:28:59.683Z,101121.78
2023-02-02T22:34:04.903Z,101121.25
2023-02-02T22:39:07.654Z,101112.28
2023-02-02T22:44:10.387Z,101089.16
2023-02-02T22:49:14.537Z,101067.47
2023-02-02T22:54:17.334Z,101067.75
2023-02-02T22:59:20.076Z,101077.66
2023-02-02T23:04:24.265Z,101095.66
2023-02-02T23:09:27.042Z,101096.81
2023-02-02T23:14:29.854Z,101114.50
2023-02-02T23:19:34.011Z,101098.41
2023-02-02T23:24:36.822Z,101102.28
2023-02-02T23:29:39.600Z,101072.16
2023-02-02T23:34:43.739Z,101060.00
2023-02-02T23:39:46.503Z,101055.47
2023-02-02T23:44:49.307Z,101040.06
2023-02-02T23:49:53.529Z,101043.56
2023-02-02T23:54:56.327Z,101049.22
2023-02-02T23:59:59.097Z,101060.44
